Time;durP1;ratioP1;P1;durP2;ratioP2;P2;SDS_P1;SDS_P2;PMS_P1;PMS_P2;Temp;Humidity;BMP_temperature;BMP_pressure;BME280_temperature;BME280_humidity;BME280_pressure;Samples;Min_cycle;Max_cycle;Signal;HPM_P1;HPM_P2
2023/11/01 00:04:36;;;;;;;0.45;0.40;;;;;;;10.78;85.66;151385.81;10542983;28;20529;-67
2023/11/01 00:09:37;;;;;;;0.80;0.50;;;;;;;10.88;84.55;151410.34;10543072;28;20044;-68
2023/11/01 00:14:39;;;;;;;1.88;0.52;;;;;;;10.99;84.06;151438.78;10524114;28;20040;-67
2023/11/01 00:19:41;;;;;;;0.85;0.45;;;;;;;10.87;84.93;151409.06;10542101;28;20048;-67
2023/11/01 00:24:43;;;;;;;1.45;0.50;;;;;;;10.83;85.12;151400.00;10543714;28;20450;-66
2023/11/01 00:29:45;;;;;;;0.73;0.50;;;;;;;10.76;86.49;151381.94;10541403;28;20055;-66
2023/11/01 00:34:47;;;;;;;2.38;0.60;;;;;;;10.70;86.74;151365.13;10540737;28;20044;-66
2023/11/01 00:39:49;;;;;;;0.55;0.50;;;;;;;10.82;86.19;151396.13;10522774;28;20052;-66
2023/11/01 00:44:51;;;;;;;0.82;0.50;;;;;;;10.85;87.00;151405.19;10540703;28;20128;-66
2023/11/01 00:49:53;;;;;;;0.65;0.40;;;;;;;10.91;86.63;151419.38;10540772;28;20055;-66
2023/11/01 00:54:55;;;;;;;0.55;0.55;;;;;;;10.89;87.07;151412.91;10522474;28;20078;-66
2023/11/01 00:59:56;;;;;;;2.50;0.40;;;;;;;10.91;87.13;151419.38;10530029;28;20074;-68
2023/11/01 01:04:59;;;;;;;1.23;0.57;;;;;;;10.98;87.67;151436.16;10550756;28;20040;-69
2023/11/01 01:10:02;;;;;;;0.90;0.32;;;;;;;10.98;89.21;151436.16;10530888;28;20052;-70
2023/11/01 01:15:05;;;;;;;1.00;0.40;;;;;;;11.05;89.80;151454.25;10530582;28;20090;-68
2023/11/01 01:20:07;;;;;;;0.85;0.50;;;;;;;11.17;89.82;151483.97;10528990;28;20048;-69
2023/11/01 01:25:09;;;;;;;0.52;0.38;;;;;;;11.12;90.74;151472.34;10528769;28;20495;-70
2023/11/01 01:30:11;;;;;;;0.30;0.30;;;;;;;11.21;90.81;151494.31;10547908;28;20090;-69
2023/11/01 01:35:16;;;;;;;0.55;0.25;;;;;;;10.97;92.85;151433.56;10546417;28;20048;-70
2023/11/01 01:40:17;;;;;;;0.30;0.28;;;;;;;11.08;93.14;151462.00;10511626;28;20048;-69
2023/11/01 01:45:19;;;;;;;0.75;0.45;;;;;;;11.02;94.79;151447.81;10546876;28;20043;-69
2023/11/01 01:50:21;;;;;;;0.98;0.30;;;;;;;11.09;94.79;151465.88;10546880;28;20483;-69
2023/11/01 01:55:23;;;;;;;2.28;0.32;;;;;;;11.02;94.85;151447.81;10528209;28;20044;-69
2023/11/01 02:00:28;;;;;;;0.93;0.50;;;;;;;10.94;96.01;151425.88;10527261;28;20055;-69
2023/11/01 02:05:30;;;;;;;0.47;0.32;;;;;;;10.92;96.35;151420.66;10526815;28;20567;-69
2023/11/01 02:10:36;;;;;;;1.13;0.40;;;;;;;10.84;97.07;151402.56;10545182;28;20064;-69
2023/11/01 02:15:43;;;;;;;0.30;0.20;;;;;;;10.95;96.81;151429.72;10526936;28;20043;-69
2023/11/01 02:20:46;;;;;;;0.40;0.40;;;;;;;10.85;96.67;151405.19;10527741;28;20135;-69
2023/11/01 02:26:07;;;;;;;0.70;0.30;;;;;;;11.11;95.41;151469.72;10526404;28;20492;-69
2023/11/01 02:31:09;;;;;;;1.10;0.35;;;;;;;10.97;96.81;151434.88;10545017;28;20040;-69
2023/11/01 02:36:11;;;;;;;0.93;0.38;;;;;;;11.00;96.70;151442.63;10526209;28;20411;-69
2023/11/01 02:41:14;;;;;;;0.38;0.30;;;;;;;10.97;96.45;151434.88;10545418;28;20407;-69
2023/11/01 02:46:16;;;;;;;2.67;0.30;;;;;;;10.92;97.32;151421.94;10544640;28;20403;-69
2023/11/01 02:51:18;;;;;;;0.85;0.30;;;;;;;11.04;95.80;151451.69;10544297;28;20468;-69
2023/11/01 02:56:20;;;;;;;0.30;0.20;;;;;;;11.19;94.04;151489.13;10525600;28;20047;-69
2023/11/01 03:01:23;;;;;;;0.22;0.10;;;;;;;11.12;94.44;151472.34;10544051;28;20044;-68
2023/11/01 03:06:25;;;;;;;0.82;0.30;;;;;;;11.16;94.97;151481.41;10544125;28;20051;-68
2023/11/01 03:11:26;;;;;;;0.47;0.20;;;;;;;11.07;94.40;151460.72;10544262;28;20427;-68
2023/11/01 03:16:28;;;;;;;0.30;0.30;;;;;;;11.03;95.12;151450.41;10525249;28;20048;-68
2023/11/01 03:21:30;;;;;;;0.73;0.47;;;;;;;11.24;92.76;151502.03;10524579;28;20063;-68
2023/11/01 03:26:32;;;;;;;0.20;0.20;;;;;;;11.39;91.15;151539.53;10542898;28;20051;-68
2023/11/01 03:31:34;;;;;;;0.55;0.40;;;;;;;11.39;90.94;151540.81;10542892;28;20047;-68
2023/11/01 03:36:36;;;;;;;0.32;0.20;;;;;;;11.56;89.45;151584.75;10524673;28;20044;-68
2023/11/01 03:41:42;;;;;;;0.30;0.20;;;;;;;11.34;91.53;151527.91;10543631;28;20047;-69
2023/11/01 03:46:45;;;;;;;0.20;0.20;;;;;;;11.36;90.74;151534.34;10542800;28;20040;-69
2023/11/01 03:51:47;;;;;;;0.30;0.30;;;;;;;11.29;92.13;151516.28;10524418;28;20043;-69
2023/11/01 03:56:49;;;;;;;0.40;0.20;;;;;;;11.18;92.54;151487.84;10524032;28;20494;-69
2023/11/01 04:01:51;;;;;;;0.30;0.30;;;;;;;11.12;93.14;151472.34;10542155;28;20044;-69
2023/11/01 04:06:53;;;;;;;0.30;0.30;;;;;;;11.14;92.64;151477.50;10541369;28;20044;-69
2023/11/01 04:11:55;;;;;;;0.22;0.22;;;;;;;11.02;93.45;151446.47;10540745;28;20040;-69
2023/11/01 04:16:56;;;;;;;0.28;0.20;;;;;;;11.03;93.76;151449.09;10540862;28;20054;-69
2023/11/01 04:21:58;;;;;;;0.40;0.30;;;;;;;10.94;93.75;151427.16;10522582;28;20044;-69
2023/11/01 04:27:00;;;;;;;0.55;0.55;;;;;;;10.77;95.32;151384.53;10540786;28;20048;-69
2023/11/01 04:32:02;;;;;;;0.50;0.28;;;;;;;10.68;95.15;151361.28;10540892;28;20078;-69
2023/11/01 04:37:04;;;;;;;0.30;0.22;;;;;;;10.60;96.23;151341.91;10541773;28;20447;-69
2023/11/01 04:42:06;;;;;;;0.50;0.30;;;;;;;10.44;97.83;151300.56;10541167;28;20564;-68
2023/11/01 04:47:07;;;;;;;1.02;0.40;;;;;;;10.46;98.13;151304.47;10541359;28;20051;-69
2023/11/01 04:52:10;;;;;;;0.50;0.40;;;;;;;10.63;96.50;151347.09;10522915;28;20040;-69
2023/11/01 04:57:12;;;;;;;0.20;0.20;;;;;;;10.82;94.31;151396.13;10539725;28;20043;-69
2023/11/01 05:02:14;;;;;;;0.30;0.30;;;;;;;10.91;93.55;151418.09;10539655;28;20495;-69
2023/11/01 05:07:16;;;;;;;0.65;0.20;;;;;;;10.83;93.90;151400.00;10539435;28;20044;-69
2023/11/01 05:12:17;;;;;;;1.10;0.60;;;;;;;10.86;94.26;151407.75;10540166;28;20040;-69
2023/11/01 05:17:19;;;;;;;0.40;0.20;;;;;;;11.01;92.85;151443.91;10539383;28;20051;-69
2023/11/01 05:22:21;;;;;;;1.60;0.52;;;;;;;11.01;91.58;151445.19;10539508;28;20051;-69
2023/11/01 05:27:23;;;;;;;0.57;0.20;;;;;;;11.02;91.19;151447.81;10539207;28;20487;-69
2023/11/01 05:32:24;;;;;;;0.25;0.22;;;;;;;11.00;91.81;151442.63;10539482;28;20040;-69
2023/11/01 05:37:26;;;;;;;0.77;0.30;;;;;;;11.05;91.03;151455.53;10539683;28;20036;-69
2023/11/01 05:42:28;;;;;;;0.20;0.20;;;;;;;11.02;91.42;151446.47;10540473;28;20154;-69
2023/11/01 05:47:30;;;;;;;0.28;0.20;;;;;;;11.05;91.42;151454.25;10546143;28;20407;-68
2023/11/01 05:52:33;;;;;;;0.30;0.20;;;;;;;11.04;91.19;151452.97;10546425;28;20051;-69
2023/11/01 05:57:36;;;;;;;0.63;0.30;;;;;;;10.99;92.39;151440.06;10545909;28;20070;-69
2023/11/01 06:02:38;;;;;;;0.95;0.20;;;;;;;10.95;92.24;151429.72;10545993;28;20119;-70
2023/11/01 06:07:40;;;;;;;0.35;0.30;;;;;;;10.97;92.39;151434.88;10545683;28;20048;-69
2023/11/01 06:12:42;;;;;;;0.60;0.40;;;;;;;11.02;91.65;151446.47;10545541;28;20119;-68
2023/11/01 06:17:43;;;;;;;0.38;0.30;;;;;;;11.01;91.55;151445.19;10544318;28;20457;-69
2023/11/01 06:22:45;;;;;;;0.88;0.32;;;;;;;10.96;92.26;151432.28;10544196;28;20044;-68
2023/11/01 06:27:47;;;;;;;0.88;0.40;;;;;;;10.82;92.88;151397.44;10544104;28;20044;-68
2023/11/01 06:32:49;;;;;;;0.38;0.30;;;;;;;10.93;92.51;151423.25;10544926;28;20040;-69
2023/11/01 06:37:51;;;;;;;0.50;0.30;;;;;;;10.52;95.79;151319.94;10544545;28;20114;-69
2023/11/01 06:42:53;;;;;;;2.38;0.55;;;;;;;10.31;98.00;151268.34;10545630;28;20087;-69
2023/11/01 06:47:55;;;;;;;0.60;0.40;;;;;;;10.48;98.52;151309.63;10544088;28;20058;-69
2023/11/01 06:52:57;;;;;;;2.10;0.55;;;;;;;10.51;98.14;151317.38;10545978;28;20380;-66
2023/11/01 06:57:59;;;;;;;0.65;0.47;;;;;;;10.53;97.34;151323.81;10544163;28;20052;-67
2023/11/01 07:03:01;;;;;;;0.40;0.30;;;;;;;10.51;98.36;151318.66;10544003;28;20050;-67
2023/11/01 07:08:03;;;;;;;0.40;0.40;;;;;;;10.74;96.54;151376.75;10544112;28;20036;-67
2023/11/01 07:13:06;;;;;;;0.52;0.40;;;;;;;10.75;96.58;151379.31;10543768;28;20040;-67
2023/11/01 07:18:08;;;;;;;1.55;0.50;;;;;;;10.85;96.29;151405.19;10543550;28;20062;-66
2023/11/01 07:23:10;;;;;;;2.35;0.38;;;;;;;11.05;93.49;151454.25;10542896;28;20040;-66
2023/11/01 07:28:12;;;;;;;0.68;0.20;;;;;;;11.19;92.03;151490.41;10542624;28;20068;-67
2023/11/01 07:33:14;;;;;;;0.85;0.40;;;;;;;11.29;91.41;151516.28;10542970;28;20063;-67
2023/11/01 07:38:16;;;;;;;1.27;0.25;;;;;;;11.45;89.74;151556.31;10541795;28;20518;-66
2023/11/01 07:43:18;;;;;;;0.63;0.32;;;;;;;11.49;89.55;151566.63;10523534;28;20458;-66
2023/11/01 07:48:20;;;;;;;0.38;0.28;;;;;;;11.77;85.94;151636.41;10541840;28;20043;-67
2023/11/01 07:53:22;;;;;;;0.80;0.35;;;;;;;11.92;85.67;151673.97;10541312;28;20040;-67
2023/11/01 07:58:24;;;;;;;0.90;0.45;;;;;;;11.91;87.15;151671.34;10541219;28;20048;-67
2023/11/01 08:03:26;;;;;;;2.30;0.45;;;;;;;11.92;86.82;151673.97;10540689;28;20040;-67
2023/11/01 08:08:28;;;;;;;1.00;0.40;;;;;;;11.84;88.40;151654.56;10539611;28;20502;-67
2023/11/01 08:13:32;;;;;;;1.15;0.57;;;;;;;11.86;90.19;151661.06;10539869;28;20488;-66
2023/11/01 08:18:34;;;;;;;0.70;0.55;;;;;;;12.14;89.07;151729.56;10539842;28;20119;-66
2023/11/01 08:23:35;;;;;;;0.80;0.40;;;;;;;12.43;87.14;151803.22;10539978;28;20512;-66
2023/11/01 08:28:37;;;;;;;0.30;0.17;;;;;;;12.63;84.38;151854.94;10539850;28;20078;-66
2023/11/01 08:33:39;;;;;;;0.43;0.30;;;;;;;12.60;85.11;151848.47;10540014;28;20400;-66
2023/11/01 08:38:41;;;;;;;0.60;0.22;;;;;;;12.81;82.26;151900.22;10540227;28;20048;-66
2023/11/01 08:43:43;;;;;;;0.98;0.30;;;;;;;12.77;85.05;151891.16;10521495;28;20487;-66
2023/11/01 08:48:45;;;;;;;0.75;0.40;;;;;;;12.82;84.30;151902.78;10540272;28;20544;-66
2023/11/01 08:53:47;;;;;;;0.57;0.40;;;;;;;12.96;81.77;151939.00;10540325;28;20067;-66
2023/11/01 08:58:49;;;;;;;0.45;0.40;;;;;;;12.93;83.05;151929.97;10538772;28;20052;-66
2023/11/01 09:03:51;;;;;;;0.40;0.28;;;;;;;13.12;79.12;151980.41;10521666;28;20403;-66
2023/11/01 09:08:53;;;;;;;0.75;0.20;;;;;;;13.32;79.22;152029.59;10539336;28;20461;-66
2023/11/01 09:13:54;;;;;;;0.98;0.30;;;;;;;13.57;77.00;152093.03;10538973;28;20059;-66
2023/11/01 09:18:57;;;;;;;0.65;0.30;;;;;;;13.85;75.67;152164.19;10541432;28;20561;-67
2023/11/01 09:23:59;;;;;;;0.10;0.10;;;;;;;14.00;73.65;152203.03;10546756;28;20114;-66
2023/11/01 09:29:01;;;;;;;0.20;0.17;;;;;;;14.19;73.15;152249.63;10546968;28;20071;-66
2023/11/01 09:34:03;;;;;;;0.80;0.20;;;;;;;14.36;71.91;152293.66;10546216;28;20042;-66
2023/11/01 09:39:06;;;;;;;0.20;0.10;;;;;;;14.55;69.97;152341.59;10546568;28;20051;-66
2023/11/01 09:44:09;;;;;;;0.70;0.40;;;;;;;14.67;71.00;152372.69;10546992;28;20446;-66
2023/11/01 09:49:11;;;;;;;0.57;0.20;;;;;;;14.66;70.41;152368.84;10546720;28;20127;-67
2023/11/01 09:54:13;;;;;;;0.13;0.10;;;;;;;14.76;69.97;152396.00;10545790;28;20430;-66
2023/11/01 09:59:15;;;;;;;0.20;0.10;;;;;;;15.05;67.45;152468.53;10545677;28;20040;-67
2023/11/01 10:04:19;;;;;;;0.15;0.10;;;;;;;14.95;67.73;152443.91;10545398;28;20097;-66
2023/11/01 10:09:20;;;;;;;0.20;0.10;;;;;;;14.83;66.04;152414.16;10546432;28;20051;-65
2023/11/01 10:14:30;;;;;;;0.20;0.20;;;;;;;14.85;68.59;152418.03;10544984;28;20114;-66
2023/11/01 10:19:33;;;;;;;0.28;0.17;;;;;;;14.88;67.99;152425.81;10544888;28;20044;-66
2023/11/01 10:24:35;;;;;;;0.13;0.10;;;;;;;14.84;67.93;152415.44;10544806;28;20127;-66
2023/11/01 10:29:47;;;;;;;0.15;0.13;;;;;;;14.94;67.20;152440.03;10545613;28;20482;-67
2023/11/01 10:34:49;;;;;;;1.40;0.20;;;;;;;15.14;66.85;152493.16;10545397;28;20491;-67
2023/11/01 10:39:53;;;;;;;0.88;0.25;;;;;;;15.17;67.88;152498.34;10544326;28;20040;-66
2023/11/01 10:44:55;;;;;;;0.20;0.00;;;;;;;15.31;65.93;152534.59;10545229;28;20044;-65
2023/11/01 10:49:57;;;;;;;0.08;0.08;;;;;;;15.53;65.27;152590.31;10544491;28;20083;-66
2023/11/01 10:55:00;;;;;;;0.28;0.10;;;;;;;15.97;63.43;152703.13;10544738;28;20067;-66
2023/11/01 11:00:15;;;;;;;1.17;0.10;;;;;;;16.06;64.29;152725.16;10544043;28;20040;-66
2023/11/01 11:05:24;;;;;;;0.47;0.20;;;;;;;16.25;64.17;152774.47;10543895;28;20121;-67
2023/11/01 11:10:32;;;;;;;0.45;0.08;;;;;;;16.62;61.57;152867.81;10544118;28;20051;-66
2023/11/01 11:15:46;;;;;;;0.10;0.10;;;;;;;16.75;62.08;152901.56;10543561;28;20377;-65
2023/11/01 11:20:52;;;;;;;0.45;0.20;;;;;;;16.29;62.78;152784.84;10525166;28;20142;-66
2023/11/01 11:25:54;;;;;;;0.70;0.15;;;;;;;16.46;62.18;152826.28;10542798;28;20036;-66
2023/11/01 11:30:57;;;;;;;0.17;0.10;;;;;;;16.52;61.50;152843.19;10542377;28;20051;-66
2023/11/01 11:36:09;;;;;;;0.50;0.40;;;;;;;16.49;62.49;152835.38;10542256;28;20044;-66
2023/11/01 11:41:22;;;;;;;0.20;0.10;;;;;;;16.52;62.15;152843.19;10541610;28;20078;-65
2023/11/01 11:46:35;;;;;;;0.15;0.15;;;;;;;16.56;62.44;152853.56;10542478;28;20139;-66
2023/11/01 11:51:37;;;;;;;0.60;0.20;;;;;;;16.57;62.93;152854.84;10542797;28;20127;-67
2023/11/01 11:56:39;;;;;;;0.65;0.30;;;;;;;16.49;61.77;152834.09;10542058;28;20036;-66
2023/11/01 12:01:41;;;;;;;0.75;0.30;;;;;;;16.39;63.31;152810.75;10541427;28;20040;-66
2023/11/01 12:06:47;;;;;;;0.57;0.30;;;;;;;16.42;61.44;152815.91;10541308;28;20036;-66
2023/11/01 12:11:50;;;;;;;0.28;0.10;;;;;;;16.43;60.23;152818.53;10541733;28;20039;-66
2023/11/01 12:16:54;;;;;;;0.47;0.15;;;;;;;16.44;63.42;152822.41;10523434;28;20055;-66
2023/11/01 12:21:58;;;;;;;0.25;0.10;;;;;;;16.95;58.96;152950.84;10541326;28;20447;-67
2023/11/01 12:27:03;;;;;;;0.35;0.20;;;;;;;17.04;58.56;152974.19;10541071;28;20407;-67
2023/11/01 12:32:08;;;;;;;0.52;0.20;;;;;;;16.75;59.60;152900.28;10541797;28;20062;-67
2023/11/01 12:37:14;;;;;;;0.15;0.10;;;;;;;16.63;59.61;152871.69;10541023;28;20063;-69
2023/11/01 12:42:20;;;;;;;;;;;;;;;16.49;61.08;152835.38;10541245;28;20045;-67
2023/11/01 12:47:23;;;;;;;0.45;0.10;;;;;;;16.37;61.03;152804.25;10541266;28;20010;-67
2023/11/01 12:52:25;;;;;;;0.15;0.10;;;;;;;16.28;61.54;152780.91;10540261;28;20093;-67
2023/11/01 12:57:27;;;;;;;1.20;0.28;;;;;;;16.28;61.67;152782.19;10541323;28;20052;-68
2023/11/01 13:02:30;;;;;;;0.30;0.20;;;;;;;16.22;62.58;152766.66;10539565;28;20040;-67
2023/11/01 13:07:33;;;;;;;0.38;0.30;;;;;;;16.11;64.86;152739.47;10540713;28;20459;-66
2023/11/01 13:12:34;;;;;;;0.65;0.30;;;;;;;16.20;64.93;152761.44;10521764;28;20120;-65
2023/11/01 13:17:36;;;;;;;1.17;0.50;;;;;;;16.05;66.04;152722.56;10540290;28;20384;-66
2023/11/01 13:22:38;;;;;;;0.82;0.20;;;;;;;15.89;66.64;152682.38;10539622;28;20380;-66
2023/11/01 13:27:40;;;;;;;1.58;0.30;;;;;;;15.99;66.58;152708.34;10539436;28;20047;-66
2023/11/01 13:32:41;;;;;;;1.02;0.30;;;;;;;15.83;66.59;152668.13;10539712;28;20047;-66
2023/11/01 13:37:43;;;;;;;4.82;0.50;;;;;;;15.60;68.12;152609.78;10540150;28;20044;-66
2023/11/01 13:42:45;;;;;;;0.47;0.20;;;;;;;15.74;67.57;152643.50;10539414;28;20047;-67
2023/11/01 13:47:47;;;;;;;1.48;0.75;;;;;;;15.70;67.06;152633.16;10538561;28;20140;-66
2023/11/01 13:52:48;;;;;;;0.40;0.30;;;;;;;15.52;68.43;152587.75;10539449;28;20040;-67
2023/11/01 13:57:50;;;;;;;0.63;0.50;;;;;;;15.48;68.64;152578.66;10538040;28;20459;-66
2023/11/01 14:02:52;;;;;;;0.35;0.25;;;;;;;15.56;67.65;152599.41;10538219;28;20040;-66
2023/11/01 14:07:54;;;;;;;0.40;0.28;;;;;;;15.39;68.19;152555.34;10545104;28;20086;-66
2023/11/01 14:12:56;;;;;;;0.82;0.40;;;;;;;15.19;69.67;152503.53;10545643;28;20036;-66
2023/11/01 14:18:04;;;;;;;0.80;0.40;;;;;;;15.14;70.48;152493.16;10527230;28;20040;-66
2023/11/01 14:23:06;;;;;;;2.13;0.43;;;;;;;15.09;70.78;152480.19;10545332;28;20089;-67
2023/11/01 14:28:08;;;;;;;1.80;0.40;;;;;;;14.97;71.17;152449.13;10545165;28;20079;-66
2023/11/01 14:33:10;;;;;;;0.40;0.30;;;;;;;14.93;71.36;152437.47;10544774;28;20051;-66
2023/11/01 14:38:12;;;;;;;0.55;0.28;;;;;;;14.82;73.50;152410.25;10544126;28;20127;-66
2023/11/01 14:43:13;;;;;;;1.33;0.30;;;;;;;14.74;73.14;152389.50;10544678;28;20040;-67
2023/11/01 14:48:15;;;;;;;1.92;0.45;;;;;;;14.58;74.04;152349.38;10543998;28;20044;-67
2023/11/01 14:53:18;;;;;;;0.95;0.30;;;;;;;14.35;76.59;152291.09;10543632;28;20068;-67
2023/11/01 14:58:19;;;;;;;0.43;0.20;;;;;;;14.25;75.50;152266.44;10543407;28;20123;-67
2023/11/01 15:03:21;;;;;;;0.38;0.30;;;;;;;14.25;75.08;152265.16;10544216;28;20044;-65
2023/11/01 15:08:23;;;;;;;0.93;0.30;;;;;;;14.03;77.00;152209.47;10543153;28;20563;-67
2023/11/01 15:13:25;;;;;;;1.73;0.30;;;;;;;13.81;78.38;152153.81;10525328;28;20456;-66
2023/11/01 15:18:26;;;;;;;0.98;0.38;;;;;;;13.63;79.03;152109.88;10541160;28;20059;-66
2023/11/01 15:23:28;;;;;;;0.93;0.38;;;;;;;13.55;80.47;152087.88;10542663;28;20044;-66
2023/11/01 15:28:30;;;;;;;0.70;0.40;;;;;;;13.41;82.69;152051.59;10542641;28;20044;-66
2023/11/01 15:33:32;;;;;;;0.93;0.40;;;;;;;13.34;83.50;152034.78;10541817;28;20032;-66
2023/11/01 15:38:33;;;;;;;0.52;0.40;;;;;;;13.06;84.33;151963.63;10541997;28;20052;-66
2023/11/01 15:43:35;;;;;;;1.52;0.60;;;;;;;12.95;85.25;151936.41;10542053;28;20110;-66
2023/11/01 15:48:37;;;;;;;0.85;0.57;;;;;;;12.99;85.35;151945.50;10541464;28;20043;-67
2023/11/01 15:53:39;;;;;;;1.90;1.00;;;;;;;12.94;86.28;151932.56;10541159;28;20040;-66
2023/11/01 15:58:41;;;;;;;76.50;16.98;;;;;;;12.80;87.58;151897.66;10540997;28;20047;-67
2023/11/01 16:03:43;;;;;;;4.10;1.55;;;;;;;12.61;89.25;151851.03;10542409;28;20046;-65
2023/11/01 16:08:45;;;;;;;1.02;0.95;;;;;;;12.55;91.64;151834.25;10541121;28;20124;-66
2023/11/01 16:13:47;;;;;;;2.35;1.70;;;;;;;12.42;93.02;151801.94;10540727;28;20414;-66
2023/11/01 16:18:52;;;;;;;2.90;1.42;;;;;;;12.31;93.38;151773.50;10541674;28;20047;-67
2023/11/01 16:23:54;;;;;;;2.42;1.52;;;;;;;12.45;94.12;151809.69;10540348;28;20438;-67
2023/11/01 16:28:55;;;;;;;2.33;1.75;;;;;;;12.32;94.40;151776.09;10539890;28;20040;-66
2023/11/01 16:33:57;;;;;;;3.00;1.58;;;;;;;12.11;95.45;151724.34;10540573;28;20111;-66
2023/11/01 16:38:59;;;;;;;2.45;2.05;;;;;;;12.01;95.92;151697.22;10539638;28;20055;-66
2023/11/01 16:44:01;;;;;;;3.00;2.00;;;;;;;12.06;95.86;151711.44;10540116;28;20537;-66
2023/11/01 16:49:04;;;;;;;3.58;2.60;;;;;;;11.98;95.92;151690.75;10521379;28;20044;-70
2023/11/01 16:54:06;;;;;;;1.58;1.48;;;;;;;11.83;97.42;151652.00;10537814;28;20032;-69
2023/11/01 16:59:08;;;;;;;4.30;2.10;;;;;;;11.90;97.36;151670.06;10530730;28;20097;-68
2023/11/01 17:04:10;;;;;;;12.52;4.72;;;;;;;11.68;98.92;151613.16;10539268;28;20051;-68
2023/11/01 17:09:12;;;;;;;6.93;6.07;;;;;;;11.75;99.15;151631.25;10540349;28;20040;-69
2023/11/01 17:14:13;;;;;;;43.15;20.35;;;;;;;11.82;98.60;151650.72;10539712;28;20039;-69
2023/11/01 17:19:15;;;;;;;10.65;7.78;;;;;;;11.73;98.68;151627.41;10539935;28;20072;-69
2023/11/01 17:24:22;;;;;;;12.10;8.32;;;;;;;11.62;100.00;151600.22;10539470;28;20047;-68
2023/11/01 17:29:33;;;;;;;77.70;34.95;;;;;;;11.50;100.00;151567.94;10539521;28;20035;-69
2023/11/01 17:34:34;;;;;;;5.57;4.80;;;;;;;11.59;100.00;151591.19;10539048;28;20044;-69
2023/11/01 17:39:38;;;;;;;2.92;2.33;;;;;;;11.36;100.00;151533.03;10541206;28;20040;-69
2023/11/01 17:44:44;;;;;;;3.22;1.90;;;;;;;11.34;100.00;151529.19;10546169;28;20090;-68
2023/11/01 17:49:50;;;;;;;3.60;1.90;;;;;;;11.40;100.00;151542.09;10546465;28;20052;-68
2023/11/01 17:54:52;;;;;;;4.07;2.17;;;;;;;11.24;100.00;151503.31;10546452;28;20086;-68
2023/11/01 17:59:55;;;;;;;2.55;1.70;;;;;;;11.18;100.00;151487.84;10528287;28;20036;-69
2023/11/01 18:04:59;;;;;;;2.65;1.92;;;;;;;11.09;100.00;151464.59;10546438;28;20099;-69
2023/11/01 18:10:01;;;;;;;6.30;2.20;;;;;;;11.21;100.00;151494.31;10545979;28;20079;-69
2023/11/01 18:15:05;;;;;;;2.60;1.70;;;;;;;11.17;100.00;151483.97;10545957;28;20433;-69
2023/11/01 18:20:09;;;;;;;5.05;1.90;;;;;;;11.00;100.00;151441.34;10545477;28;20558;-69
2023/11/01 18:26:15;;;;;;;2.58;1.70;;;;;;;10.92;100.00;151421.94;10544933;28;20060;-69
2023/11/01 18:31:23;;;;;;;3.30;1.83;;;;;;;11.06;100.00;151458.09;10377030;28;20089;-68
2023/11/01 18:36:26;;;;;;;2.72;1.77;;;;;;;11.18;100.00;151486.56;10376800;28;20054;-68
2023/11/01 18:41:31;;;;;;;2.53;1.90;;;;;;;11.01;100.00;151445.19;10375860;28;20057;-68
2023/11/01 18:46:35;;;;;;;3.72;2.03;;;;;;;10.94;100.00;151425.88;10376377;28;20578;-69
2023/11/01 18:51:55;;;;;;;2.97;1.70;;;;;;;10.85;100.00;151405.19;10375390;28;20074;-69
2023/11/01 18:56:57;;;;;;;3.85;1.77;;;;;;;10.74;100.00;151375.47;10374420;28;20141;-68
2023/11/01 19:02:00;;;;;;;2.97;1.83;;;;;;;10.68;100.00;151361.28;10502930;28;20516;-66
2023/11/01 19:07:04;;;;;;;3.35;1.92;;;;;;;10.77;100.00;151383.22;10526784;28;20107;-66
2023/11/01 19:12:11;;;;;;;5.28;1.95;;;;;;;10.56;100.00;151330.28;10544860;28;20063;-67
2023/11/01 19:17:13;;;;;;;3.45;3.13;;;;;;;10.39;100.00;151286.38;10547305;28;20063;-67
2023/11/01 19:22:16;;;;;;;2.42;1.80;;;;;;;10.44;100.00;151300.56;10545823;28;20051;-66
2023/11/01 19:27:18;;;;;;;2.50;1.83;;;;;;;10.59;100.00;151339.31;10544267;28;20044;-66
2023/11/01 19:32:24;;;;;;;2.33;1.52;;;;;;;10.59;100.00;151338.03;10544240;28;20480;-67
2023/11/01 19:37:26;;;;;;;2.70;1.42;;;;;;;10.47;100.00;151308.31;10544397;28;20070;-67
2023/11/01 19:42:32;;;;;;;3.95;1.63;;;;;;;10.37;100.00;151281.25;10544672;28;20040;-68
2023/11/01 19:47:36;;;;;;;2.53;1.80;;;;;;;10.46;100.00;151305.75;10544561;28;20048;-68
2023/11/01 19:52:38;;;;;;;3.83;2.15;;;;;;;10.47;100.00;151307.03;10543642;28;20063;-66
2023/11/01 19:57:39;;;;;;;3.10;1.77;;;;;;;10.23;100.00;151247.63;10544225;28;20081;-67
2023/11/01 20:02:42;;;;;;;3.38;2.10;;;;;;;10.21;100.00;151241.16;10525145;28;20060;-67
2023/11/01 20:07:44;;;;;;;2.58;1.50;;;;;;;10.33;100.00;151272.19;10545922;28;20044;-67
2023/11/01 20:12:45;;;;;;;2.45;1.42;;;;;;;10.50;100.00;151316.09;10543281;28;20052;-67
2023/11/01 20:17:48;;;;;;;1.50;1.10;;;;;;;10.47;100.00;151308.31;10543832;28;20454;-68
2023/11/01 20:22:51;;;;;;;2.47;1.15;;;;;;;10.41;100.00;151292.84;10542765;28;20048;-68
2023/11/01 20:27:53;;;;;;;4.10;1.73;;;;;;;10.26;100.00;151254.09;10542507;28;20105;-67
2023/11/01 20:32:55;;;;;;;2.28;1.60;;;;;;;10.21;100.00;151241.16;10541955;28;20454;-67
2023/11/01 20:37:56;;;;;;;3.25;1.92;;;;;;;10.23;100.00;151246.34;10542434;28;20040;-67
2023/11/01 20:42:58;;;;;;;10.05;2.63;;;;;;;10.16;100.00;151229.53;10542677;28;20044;-67
2023/11/01 20:48:00;;;;;;;2.20;1.75;;;;;;;10.09;100.00;151212.78;10524446;28;20040;-67
2023/11/01 20:53:02;;;;;;;2.72;1.30;;;;;;;10.18;100.00;151233.41;10542476;28;20047;-67
2023/11/01 20:58:06;;;;;;;3.20;1.60;;;;;;;10.35;100.00;151277.34;10541719;28;20102;-67
2023/11/01 21:03:07;;;;;;;2.35;1.17;;;;;;;10.31;100.00;151267.00;10541756;28;20447;-66
2023/11/01 21:08:09;;;;;;;2.22;1.10;;;;;;;10.30;100.00;151264.44;10542135;28;20474;-69
2023/11/01 21:13:14;;;;;;;1.40;1.10;;;;;;;10.28;100.00;151260.56;10525138;28;20411;-69
2023/11/01 21:18:17;;;;;;;2.22;1.02;;;;;;;10.26;100.00;151255.38;10532330;28;20408;-70
2023/11/01 21:23:19;;;;;;;4.63;1.10;;;;;;;10.17;100.00;151232.09;10551339;28;20036;-70
2023/11/01 21:28:21;;;;;;;3.65;1.15;;;;;;;10.08;100.00;151208.88;10549748;28;20039;-67
2023/11/01 21:33:23;;;;;;;2.55;1.10;;;;;;;10.13;100.00;151221.78;10549792;28;20043;-71
2023/11/01 21:38:25;;;;;;;3.05;1.30;;;;;;;10.19;100.00;151236.00;10529942;28;20036;-70
2023/11/01 21:43:27;;;;;;;2.30;1.25;;;;;;;10.06;100.00;151205.03;10548021;28;20056;-71
2023/11/01 21:48:29;;;;;;;2.05;1.20;;;;;;;10.07;100.00;151207.59;10548560;28;20048;-71
2023/11/01 21:53:35;;;;;;;2.92;1.63;;;;;;;10.38;100.00;151283.81;10550693;28;20487;-71
2023/11/01 21:58:37;;;;;;;1.50;1.08;;;;;;;10.62;100.00;151345.75;10548127;28;20047;-71
2023/11/01 22:03:41;;;;;;;1.50;1.00;;;;;;;10.67;100.00;151357.38;10548106;28;20094;-71
2023/11/01 22:09:16;;;;;;;2.03;1.83;;;;;;;10.77;100.00;151383.22;10547462;28;20074;-70
2023/11/01 22:14:26;;;;;;;2.67;1.30;;;;;;;10.61;100.00;151344.47;10547592;28;20044;-71
2023/11/01 22:19:31;;;;;;;2.50;1.00;;;;;;;10.72;100.00;151371.63;10548113;28;20040;-70
2023/11/01 22:24:36;;;;;;;2.30;1.05;;;;;;;10.49;100.00;151312.19;10547927;28;20056;-71
2023/11/01 22:29:42;;;;;;;2.58;0.93;;;;;;;10.26;100.00;151255.38;10547314;28;20060;-72
2023/11/01 22:34:45;;;;;;;1.07;0.70;;;;;;;10.26;100.00;151254.09;10545837;28;20040;-71
2023/11/01 22:39:47;;;;;;;2.17;1.00;;;;;;;10.43;100.00;151296.72;10545534;28;20450;-72
2023/11/01 22:44:49;;;;;;;2.55;1.17;;;;;;;10.51;100.00;151317.38;10526734;28;20151;-72
2023/11/01 22:49:51;;;;;;;2.25;0.93;;;;;;;10.30;100.00;151264.44;10545747;28;20123;-71
2023/11/01 22:54:53;;;;;;;2.30;1.08;;;;;;;10.35;100.00;151277.34;10527009;28;20055;-71
2023/11/01 22:59:55;;;;;;;2.03;1.15;;;;;;;10.25;100.00;151252.81;10545550;28;20044;-71
2023/11/01 23:04:56;;;;;;;1.92;1.00;;;;;;;10.11;100.00;151217.91;10545253;28;20040;-71
2023/11/01 23:09:58;;;;;;;1.65;1.00;;;;;;;10.01;100.00;151192.13;10544045;28;20407;-71